D/T METAR WX W/SPE G/SPE TEMP DEWP FEEL
25/05/22 00:50 EGNJ 242350Z AUTO 22005KT 9999 FEW043/// 08/05 Q1009 5.8mph 8°C 5°C 7.3°C
25/05/22 00:20 EGNJ 242320Z AUTO 22006KT 9999 NCD 09/06 Q1009 6.9mph 9°C 6°C 8.6°C
24/05/22 23:20 EGNJ 242220Z AUTO 23004KT 9999 NCD 11/06 Q1008 4.6mph 11°C 6°C 10.6°C
24/05/22 22:50 EGNJ 242150Z AUTO 24006KT 9999 NCD 12/06 Q1008 6.9mph 12°C 6°C 11.6°C
24/05/22 22:20 EGNJ 242120Z AUTO 23006KT 9999 NCD 12/06 Q1008 6.9mph 12°C 6°C 11.6°C
24/05/22 21:20 EGNJ 242020Z AUTO 25006KT 9999 NCD 13/07 Q1008 6.9mph 13°C 7°C 13.0°C
24/05/22 20:50 EGNJ 241950Z AUTO 26007KT 9999 NCD 14/07 Q1008 8.1mph 14°C 7°C 14.0°C
24/05/22 20:20 EGNJ 241920Z AUTO 27007KT 9999 NCD 15/07 Q1007 8.1mph 15°C 7°C 15.0°C
24/05/22 19:50 EGNJ 241850Z AUTO 28010KT 9999 NCD 15/06 Q1007 11.5mph 15°C 6°C 14.6°C
24/05/22 18:50 EGNJ 241750Z AUTO 27008KT 240V310 9999 NCD 16/07 Q1006 9.2mph 16°C 7°C 16.0°C
24/05/22 18:20 EGNJ 241720Z 28013KT 9999 SCT032CB SCT045 16/06 Q1006 15.0mph 16°C 6°C 15.6°C
24/05/22 17:50 EGNJ 241650Z 28013KT 9999 VCSH SCT032CB SCT045 16/06 Q1006 VCSH 15.0mph 16°C 6°C 15.6°C
24/05/22 17:20 EGNJ 241620Z 28013KT 9999 VCSH SCT032CB SCT045 17/06 Q1006 VCSH 15.0mph 17°C 6°C 16.6°C
24/05/22 16:20 EGNJ 241520Z 27007KT 240V300 9999 -SHRA SCT032CB SCT045 15/09 Q1005 -SHRA 8.1mph 15°C 9°C 15.8°C
24/05/22 15:50 EGNJ 241450Z 29014KT 9999 VCSH SCT032CB SCT045 15/07 Q1005 VCSH 16.1mph 15°C 7°C 15.0°C
24/05/22 14:50 EGNJ 241350Z 26006KT 220V290 9999 VCSH FEW032 SCT041CB 14/09 Q1005 RETS VCSH 6.9mph 14°C 9°C 14.8°C
24/05/22 14:20 EGNJ 241320Z 27014KT 240V310 8000 -SHRA SCT032CB BKN047 14/09 Q1004 -SHRA 16.1mph 14°C 9°C 14.8°C
24/05/22 13:50 EGNJ 241250Z 30013KT 260V320 9999 -SHRA FEW034 SCT040CB 15/07 Q1004 -SHRA 15.0mph 15°C 7°C 15.0°C
24/05/22 13:20 EGNJ 241220Z 26012KT 9999 VCSH FEW034 SCT040CB 16/07 Q1003 VCSH 13.8mph 16°C 7°C 16.0°C
24/05/22 12:50 EGNJ 241150Z 27013KT 9999 SCT038CB 16/06 Q1003 15.0mph 16°C 6°C 15.6°C
24/05/22 12:20 EGNJ 241120Z 26011KT 9999 SCT038CB 16/06 Q1003 12.7mph 16°C 6°C 15.6°C
24/05/22 11:50 EGNJ 241050Z 29012KT 9999 SCT038CB 15/06 Q1003 13.8mph 15°C 6°C 14.6°C
24/05/22 11:20 EGNJ 241020Z 29012KT 9999 BKN040 15/06 Q1002 13.8mph 15°C 6°C 14.6°C
24/05/22 10:50 EGNJ 240950Z 29010KT 9999 SCT033 BKN046 15/06 Q1002 11.5mph 15°C 6°C 14.6°C
24/05/22 10:20 EGNJ 240920Z 29011KT 260V330 9999 BKN024 14/07 Q1002 12.7mph 14°C 7°C 14.0°C
24/05/22 09:50 EGNJ 240850Z 28011KT 9999 BKN024 15/07 Q1002 12.7mph 15°C 7°C 15.0°C
24/05/22 09:20 EGNJ 240820Z 28012KT 9999 SCT020 14/08 Q1002 13.8mph 14°C 8°C 14.4°C
24/05/22 08:50 EGNJ 240750Z 28012KT 9999 SCT020 13/08 Q1001 13.8mph 13°C 8°C 13.4°C
24/05/22 08:20 EGNJ 240720Z 29013KT 9999 FEW016 12/08 Q1001 15.0mph 12°C 8°C 12.4°C
24/05/22 07:20 EGNJ 240620Z 27007KT 9999 FEW012 12/09 Q1000 8.1mph 12°C 9°C 12.8°C
24/05/22 06:50 EGNJ 240550Z 27008KT 9999 FEW006 12/09 Q1000 9.2mph 12°C 9°C 12.8°C
24/05/22 06:20 EGNJ 240520Z 26007KT 9999 FEW006 11/09 Q1000 8.1mph 11°C 9°C 11.8°C
24/05/22 05:20 EGNJ 240420Z AUTO 24007KT 9999 NCD 10/09 Q0999 8.1mph 10°C 9°C 10.8°C
24/05/22 04:50 EGNJ 240350Z AUTO 26008KT 9999 BKN047/// 11/09 Q0999 9.2mph 11°C 9°C 11.8°C
24/05/22 04:20 EGNJ 240320Z AUTO 25008KT 9999 SCT037/// BKN046/// 11/09 Q0999 9.2mph 11°C 9°C 11.8°C
24/05/22 03:50 EGNJ 240250Z AUTO 25008KT 9999 -RA BKN034/// BKN044/// 11/09 Q0999 -RA 9.2mph 11°C 9°C 11.8°C
24/05/22 03:20 EGNJ 240220Z AUTO 25007KT 9999 -RA BKN034/// BKN045/// 11/09 Q0999 -RA 8.1mph 11°C 9°C 11.8°C
24/05/22 02:20 EGNJ 240120Z AUTO 26006KT 9999 -RA FEW029/// BKN034/// BKN040/// 11/09 Q0999 RERA -RA 6.9mph 11°C 9°C 11.8°C
24/05/22 01:50 EGNJ 240050Z AUTO 26005KT 9999 -RA SCT034/// BKN042/// OVC048/// 11/10 Q0999 -RA 5.8mph 11°C 10°C 12.3°C
24/05/22 01:20 EGNJ 240020Z AUTO 26005KT 9999 -RA SCT034/// BKN041/// 11/10 Q0999 RERA -RA 5.8mph 11°C 10°C 12.3°C
24/05/22 00:20 EGNJ 232320Z AUTO 28005KT 9999 -RA BKN033/// BKN040/// 11/10 Q0999 -RA 5.8mph 11°C 10°C 12.3°C
23/05/22 23:50 EGNJ 232250Z AUTO 29008KT 9999 -RA FEW026/// BKN032/// 11/10 Q0999 -RA 9.2mph 11°C 10°C 12.3°C
23/05/22 23:20 EGNJ 232220Z AUTO 28007KT 7000 -RA BKN033/// BKN041/// OVC047/// 12/10 Q0999 RERA -RA 8.1mph 12°C 10°C 13.3°C
23/05/22 22:50 EGNJ 232150Z AUTO 26006KT 2300 +RA FEW031/// SCT039/// OVC049/// 11/10 Q0999 +RA 6.9mph 11°C 10°C 12.3°C
23/05/22 22:20 EGNJ 232120Z AUTO 26008KT 2300 +RA FEW022/// SCT029/// BKN036/// 11/10 Q0999 +RA 9.2mph 11°C 10°C 12.3°C
23/05/22 21:50 EGNJ 232050Z AUTO 23012KT 3800 RA SCT020/// BKN028/// OVC046/// 12/10 Q0999 RA 13.8mph 12°C 10°C 13.3°C
23/05/22 21:20 EGNJ 232020Z 20008KT 9999 -RA SCT037 13/11 Q0999 -RA 9.2mph 13°C 11°C 14.8°C
23/05/22 20:50 EGNJ 231950Z 26003KT 9999 -RA SCT037 14/10 Q0999 -RA 3.5mph 14°C 10°C 15.3°C
23/05/22 20:20 EGNJ 231920Z AUTO 27005KT 9999 NCD 15/09 Q0999 5.8mph 15°C 9°C 15.8°C
23/05/22 19:50 EGNJ 231850Z AUTO 27005KT 9999 FEW041/// 15/09 Q0999 5.8mph 15°C 9°C 15.8°C
23/05/22 18:50 EGNJ 231750Z AUTO 27006KT 9999 -RA BKN033/// 16/10 Q0998 -RA 6.9mph 16°C 10°C 17.3°C
23/05/22 18:20 EGNJ 231720Z 29009KT 9999 VCSH SCT044 17/08 Q0998 VCSH 10.4mph 17°C 8°C 17.4°C
23/05/22 17:50 EGNJ 231650Z 29009KT 9999 VCSH SCT044 17/08 Q0998 VCSH 10.4mph 17°C 8°C 17.4°C
23/05/22 16:50 EGNJ 231550Z 29006KT 9999 SCT044 17/08 Q0999 6.9mph 17°C 8°C 17.4°C
23/05/22 16:20 EGNJ 231520Z 30008KT 9999 SCT045 17/09 Q0999 9.2mph 17°C 9°C 17.8°C
23/05/22 15:50 EGNJ 231450Z 24008KT 220V290 9999 SCT045 17/08 Q0999 9.2mph 17°C 8°C 17.4°C
23/05/22 15:20 EGNJ 231420Z 23007KT 9999 SCT044 18/08 Q0999 8.1mph 18°C 8°C 18.4°C
23/05/22 14:50 EGNJ 231350Z 25005KT 210V280 9999 SCT044 17/08 Q0999 5.8mph 17°C 8°C 17.4°C
23/05/22 13:50 EGNJ 231250Z 30007KT 9999 SCT046 18/09 Q1000 8.1mph 18°C 9°C 18.8°C
23/05/22 13:20 EGNJ 231220Z 30007KT 210V340 9999 SCT036 BKN048 18/09 Q1000 8.1mph 18°C 9°C 18.8°C
23/05/22 12:50 EGNJ 231150Z 25005KT 190V300 9999 SCT035 BKN045 18/08 Q1000 5.8mph 18°C 8°C 18.4°C
23/05/22 12:20 EGNJ 231120Z 31005KT 270V350 9999 SCT030 17/09 Q1000 5.8mph 17°C 9°C 17.8°C
23/05/22 11:20 EGNJ 231020Z 26005KT 200V310 9999 SCT028 17/09 Q1001 5.8mph 17°C 9°C 17.8°C
23/05/22 10:50 EGNJ 230950Z 23006KT 9999 SCT028 16/09 Q1001 6.9mph 16°C 9°C 16.8°C
23/05/22 10:20 EGNJ 230920Z 27009KT 9999 SCT028 16/09 Q1001 10.4mph 16°C 9°C 16.8°C
23/05/22 09:50 EGNJ 230850Z 25007KT 210V280 9999 FEW028 16/09 Q1002 8.1mph 16°C 9°C 16.8°C
23/05/22 09:20 EGNJ 230820Z 25007KT 9999 FEW028 15/10 Q1002 8.1mph 15°C 10°C 16.3°C
23/05/22 08:50 EGNJ 230750Z 25007KT 9999 FEW020 BKN048 15/11 Q1002 8.1mph 15°C 11°C 16.8°C
23/05/22 07:50 EGNJ 230650Z 25004KT 9999 FEW026 OVC041 14/12 Q1002 4.6mph 14°C 12°C 16.3°C
23/05/22 07:20 EGNJ 230620Z 23007KT 9999 FEW023 OVC039 14/12 Q1002 8.1mph 14°C 12°C 16.3°C
23/05/22 06:50 EGNJ 230550Z AUTO 21005KT 9999 OVC033/// 14/12 Q1003 5.8mph 14°C 12°C 16.3°C
23/05/22 06:20 EGNJ 230520Z AUTO 22006KT 9999 -RA SCT023/// BKN030/// OVC043/// 14/12 Q1003 -RA 6.9mph 14°C 12°C 16.3°C
23/05/22 05:50 EGNJ 230450Z AUTO 25003KT 9999 -RA SCT030/// BKN040/// BKN048/// 14/13 Q1003 -RA 3.5mph 14°C 13°C 16.8°C
23/05/22 05:20 EGNJ 230420Z AUTO 26003KT 9999 SCT023/// BKN029/// BKN038/// 14/13 Q1003 3.5mph 14°C 13°C 16.8°C
23/05/22 04:50 EGNJ 230350Z AUTO 27003KT 9999 BKN025/// 14/13 Q1003 3.5mph 14°C 13°C 16.8°C
23/05/22 03:50 EGNJ 230250Z AUTO 23003KT 9999 -RA FEW037/// OVC045/// 14/13 Q1004 -RA 3.5mph 14°C 13°C 16.8°C
23/05/22 03:20 EGNJ 230220Z AUTO 20004KT 170V240 9999 -RA BKN039/// 15/12 Q1004 -RA 4.6mph 15°C 12°C 17.3°C
23/05/22 02:50 EGNJ 230150Z AUTO 24005KT 9999 -RA SCT034/// BKN044/// 15/13 Q1005 RERA -RA 5.8mph 15°C 13°C 17.8°C
23/05/22 01:50 EGNJ 230050Z AUTO 22004KT 9999 OVC036/// 16/12 Q1005 4.6mph 16°C 12°C 18.3°C
23/05/22 01:20 EGNJ 230020Z AUTO 20005KT 9999 BKN036/// OVC044/// 16/13 Q1005 5.8mph 16°C 13°C 18.8°C
23/05/22 00:50 EGNJ 222350Z AUTO 19006KT 9999 BKN044/// 16/13 Q1005 6.9mph 16°C 13°C 18.8°C
23/05/22 00:20 EGNJ 222320Z AUTO 21006KT 9999 NCD 16/13 Q1006 6.9mph 16°C 13°C 18.8°C
22/05/22 23:50 EGNJ 222250Z AUTO 21006KT 9999 NCD 17/12 Q1006 6.9mph 17°C 12°C 19.3°C
22/05/22 23:20 EGNJ 222220Z AUTO 20004KT 9999 NCD 16/13 Q1006 4.6mph 16°C 13°C 18.8°C
22/05/22 22:20 EGNJ 222120Z AUTO 21005KT 9999 NCD 16/12 Q1006 5.8mph 16°C 12°C 18.3°C
22/05/22 21:50 EGNJ 222050Z AUTO 19006KT 9999 NCD 16/12 Q1007 6.9mph 16°C 12°C 18.3°C
22/05/22 21:20 EGNJ 222020Z AUTO 19007KT 9999 NCD 17/12 Q1007 8.1mph 17°C 12°C 19.3°C
22/05/22 20:50 EGNJ 221950Z AUTO 20007KT 9999 NCD 18/12 Q1007 8.1mph 18°C 12°C 20.3°C
22/05/22 20:20 EGNJ 221920Z AUTO 20008KT 9999 NCD 19/12 Q1007 9.2mph 19°C 12°C 21.3°C
22/05/22 19:50 EGNJ 221850Z AUTO 21009KT 9999 NCD 19/12 Q1007 10.4mph 19°C 12°C 21.3°C
22/05/22 19:20 EGNJ 221820Z AUTO 21011KT 9999 NCD 20/12 Q1007 12.7mph 20°C 12°C 22.3°C
22/05/22 18:50 EGNJ 221750Z AUTO 22012KT 9999 NCD 20/11 Q1007 13.8mph 20°C 11°C 21.8°C
22/05/22 18:20 EGNJ 221720Z AUTO 21010KT 9999 NCD 21/12 Q1008 11.5mph 21°C 12°C 23.3°C
22/05/22 17:50 EGNJ 221650Z 20013KT 9999 FEW035 21/11 Q1008 15.0mph 21°C 11°C 22.8°C
22/05/22 17:20 EGNJ 221620Z 21011KT 9999 FEW035 21/11 Q1008 12.7mph 21°C 11°C 22.8°C
22/05/22 16:50 EGNJ 221550Z 20011KT 9999 FEW035 21/11 Q1009 12.7mph 21°C 11°C 22.8°C